Terminal Aerodrome Forecast
Issued by NWS Wakefield, VA

Home | Current Version | Previous Version | Text Only | Print | Product List | Glossary On
Versions: 1 2 3 4 5 6 7 8 9 10 11 12 13 14 15
000
FTUS41 KAKQ 242341
TAFSBY
TAF
KSBY 242341Z 2500/2524 29008KT P6SM SKC
     FM250400 31003KT P6SM SCT250
     FM251300 32006KT P6SM SCT100 BKN150
     FM251700 28007KT P6SM BKN080
     FM252200 16004KT 5SM -RA BR SCT012 BKN025=

USA.gov is the U.S. government's official web portal to all federal, state and local government web resources and services.